CST,Max TemperatureF,Mean TemperatureF,Min TemperatureF,Max Dew PointF,MeanDew PointF,Min DewpointF,Max Humidity, Mean Humidity, Min Humidity, Max Sea Level PressureIn, Mean Sea Level PressureIn, Min Sea Level PressureIn, Max VisibilityMiles, Mean VisibilityMiles, Min VisibilityMiles, Max Wind SpeedMPH, Mean Wind SpeedMPH, Max Gust SpeedMPH,PrecipitationIn, CloudCover, Events, WindDirDegrees
2012-12-1,71,62,53,52,49,45,77,62,50,30.23,30.16,30.11,10,10,10,13,7,,0.00,5,,148
2012-12-2,69,66,62,63,59,52,94,81,68,30.21,30.15,30.12,10,10,10,12,8,,0.00,6,,166
2012-12-3,75,68,60,63,58,55,94,76,50,30.16,30.11,30.05,10,10,10,10,7,,0.00,4,,153
2012-12-4,69,61,53,63,59,52,100,87,73,30.24,30.13,30.08,10,9,4,15,8,,0.00,8,Rain,194
2012-12-5,62,56,48,48,41,36,82,61,39,30.29,30.21,30.10,10,10,10,13,5,,0.00,5,,38
2012-12-6,60,53,46,59,48,36,100,83,58,30.09,30.02,29.93,10,7,2,5,2,,0.00,7,,96
2012-12-7,66,60,55,61,57,55,100,89,73,29.95,29.90,29.84,10,8,1,9,2,,0.00,7,Rain,170
2012-12-8,62,60,59,63,59,55,100,93,82,29.94,29.90,29.87,10,6,0,6,3,,0.00,8,Rain,159
2012-12-9,69,64,57,64,62,55,100,93,78,29.91,29.84,29.77,10,8,3,18,7,,0.00,7,Rain-Thunderstorm,173
2012-12-10,53,42,32,52,36,25,100,82,70,30.09,29.93,29.81,10,8,2,16,11,,0.00,8,,335
2012-12-11,44,36,26,28,26,21,100,74,42,30.27,30.17,30.09,10,10,7,8,5,,0.00,3,,348
2012-12-12,51,38,24,30,25,19,100,75,30,30.38,30.31,30.27,10,10,8,6,1,,0.00,0,,64
2012-12-13,57,40,24,32,26,21,93,70,25,30.40,30.34,30.27,10,10,10,5,0,,0.00,0,,108
2012-12-14,59,44,28,45,32,25,93,67,34,30.30,30.22,30.09,10,10,10,8,4,,0.00,4,,129
2012-12-15,64,55,48,61,53,46,100,92,82,30.04,29.92,29.81,10,10,7,14,10,20,0.00,7,Rain,154
2012-12-16,64,62,59,61,59,57,100,91,82,29.83,29.77,29.70,10,9,5,10,5,,0.00,6,,175
2012-12-17,64,50,35,57,51,36,100,89,64,29.86,29.73,29.64,10,10,4,17,6,,0.00,5,,208
2012-12-18,62,46,30,45,37,30,100,78,42,29.93,29.88,29.82,10,7,0,12,3,,0.00,2,Fog,142
2012-12-19,69,56,42,54,45,39,93,70,52,29.96,29.87,29.66,10,10,10,15,5,,0.00,4,,131
2012-12-20,64,50,35,63,39,21,100,68,49,30.14,29.79,29.51,10,10,3,31,19,48,0.00,5,Rain,238
2012-12-21,46,37,26,23,19,16,86,53,29,30.33,30.27,30.15,10,10,10,15,11,,0.00,0,,276
2012-12-22,60,42,23,32,25,19,93,61,25,30.35,30.25,30.10,10,10,10,10,2,,0.00,0,,163
2012-12-23,55,48,42,55,42,28,100,77,50,30.09,29.99,29.82,10,9,3,9,3,,0.00,6,,158
2012-12-24,57,50,39,55,49,34,100,90,76,30.01,29.88,29.78,10,9,0,10,4,,0.00,7,,325
2012-12-25,37,34,30,36,31,28,100,88,81,30.03,29.88,29.54,10,7,2,20,9,38,0.00,7,Rain,29
2012-12-26,33,32,30,34,29,27,100,90,75,30.20,29.90,29.55,10,8,1,22,15,33,0.00,8,Rain-Snow,311
2012-12-27,37,30,24,28,27,23,100,87,70,30.21,30.14,30.06,10,10,5,6,2,,0.00,4,,74
2012-12-28,39,36,32,39,34,28,100,96,87,30.08,29.95,29.78,10,6,2,15,3,,0.00,8,Rain,55
2012-12-29,35,30,23,36,28,21,100,84,70,30.42,30.18,29.95,10,10,6,17,10,,0.00,6,,294
2012-12-30,42,30,19,28,24,19,100,82,49,30.54,30.44,30.34,10,7,3,6,0,,0.00,2,,150
2012-12-31,44,38,33,39,32,28,100,80,53,30.33,30.22,30.02,10,9,5,7,2,,0.00,6,Rain,105